TimeAKST,TemperatureF,Dew PointF,Humidity,Sea Level PressureIn,VisibilityMPH,Wind Direction,Wind SpeedMPH,Gust SpeedMPH,PrecipitationIn,Events,Conditions,WindDirDegrees,DateUTC
12:58 AM,17.1,10.9,77,29.76,4.0,NNE,15.0,24.2,0.00,Snow,Light Snow,30,2013-01-20 09:58:00
1:37 AM,19.4,12.2,74,29.71,5.0,NNE,13.8,24.2,0.00,Snow,Light Snow,30,2013-01-20 10:37:00
1:46 AM,19.4,12.2,74,29.71,5.0,NNE,12.7,20.7,0.00,Snow,Light Snow,20,2013-01-20 10:46:00
2:24 AM,17.6,12.2,79,29.70,2.5,NNE,17.3,25.3,0.00,Snow,Light Snow,30,2013-01-20 11:24:00
2:29 AM,17.6,12.2,79,29.70,2.5,NNE,16.1,25.3,0.00,Snow,Light Snow,30,2013-01-20 11:29:00
2:42 AM,17.6,14.0,86,29.70,3.0,NE,16.1,20.7,0.00,Snow,Light Snow,40,2013-01-20 11:42:00
3:37 AM,17.6,15.8,93,29.69,3.0,NNE,16.1,21.9,0.00,Snow,Light Snow,20,2013-01-20 12:37:00
3:43 AM,17.6,15.8,93,29.70,2.0,NE,9.2,21.9,0.00,Snow,Light Snow,40,2013-01-20 12:43:00
3:47 AM,17.6,15.8,93,29.70,1.0,NE,9.2,19.6,0.00,Snow,Light Snow,40,2013-01-20 12:47:00
3:53 AM,17.6,15.8,93,29.69,1.0,NE,9.2,16.1,0.00,Snow,Light Snow,50,2013-01-20 12:53:00
3:58 AM,18.0,16.0,92,29.73,1.2,NE,11.5,-,0.00,Snow,Light Snow,50,2013-01-20 12:58:00
4:26 AM,17.6,15.8,93,29.68,2.0,NE,10.4,17.3,0.00,Snow,Light Snow,40,2013-01-20 13:26:00
4:31 AM,17.6,15.8,93,29.68,2.0,NE,12.7,17.3,0.00,Snow,Light Snow,50,2013-01-20 13:31:00
4:41 AM,17.6,15.8,93,29.68,1.5,ENE,11.5,-,0.00,Snow,Light Snow,70,2013-01-20 13:41:00
4:58 AM,19.9,19.0,96,29.71,1.2,ENE,15.0,-,0.01,Snow,Light Snow,60,2013-01-20 13:58:00
5:08 AM,21.2,19.4,93,29.67,2.0,ENE,11.5,20.7,0.00,Snow,Light Snow,70,2013-01-20 14:08:00
5:17 AM,21.2,19.4,93,29.67,2.5,NE,11.5,18.4,0.01,Snow,Light Snow,50,2013-01-20 14:17:00
5:23 AM,21.2,19.4,93,29.67,4.0,ENE,9.2,-,0.01,Snow,Light Snow,60,2013-01-20 14:23:00
5:29 AM,21.2,19.4,93,29.66,4.0,ENE,11.5,-,0.02,Snow,Light Snow,60,2013-01-20 14:29:00
5:58 AM,19.9,17.1,89,29.69,4.0,North,6.9,-,0.03,Snow,Light Snow,10,2013-01-20 14:58:00
6:42 AM,21.2,17.6,86,29.66,6.0,Calm,Calm,-,0.00,Snow,Light Snow,0,2013-01-20 15:42:00
6:51 AM,19.4,17.6,93,29.66,2.0,NNE,5.8,-,0.00,Snow,Light Snow,30,2013-01-20 15:51:00
6:54 AM,19.4,17.6,93,29.66,1.5,NNE,6.9,-,0.00,Snow,Light Snow,30,2013-01-20 15:54:00
6:58 AM,19.9,18.0,92,29.70,1.5,NNE,6.9,-,0.00,Snow,Light Snow,20,2013-01-20 15:58:00
7:38 AM,19.4,17.6,93,29.65,2.0,NE,10.4,-,0.01,Snow,Light Snow,40,2013-01-20 16:38:00
7:44 AM,19.4,17.6,93,29.65,1.5,NNE,10.4,-,0.01,Snow,Light Snow,20,2013-01-20 16:44:00
7:50 AM,19.4,17.6,93,29.65,1.0,North,9.2,-,0.01,Snow,Light Snow,10,2013-01-20 16:50:00
7:58 AM,19.9,18.0,92,29.69,1.5,NNE,10.4,-,0.01,Snow,Light Snow,30,2013-01-20 16:58:00
8:03 AM,19.4,17.6,93,29.65,2.5,Variable,5.8,-,0.00,Snow,Light Snow,0,2013-01-20 17:03:00
8:07 AM,19.4,17.6,93,29.65,3.0,NNE,6.9,-,0.01,Snow,Light Snow,20,2013-01-20 17:07:00
8:16 AM,19.4,19.4,100,29.65,2.5,North,6.9,-,0.01,Snow,Light Snow,10,2013-01-20 17:16:00
8:22 AM,19.4,19.4,100,29.65,3.0,Variable,5.8,-,0.01,Snow,Light Snow,0,2013-01-20 17:22:00
8:58 AM,19.0,17.1,92,29.70,8.0,North,4.6,-,0.02,Snow,Light Snow,360,2013-01-20 17:58:00
9:58 AM,19.0,18.0,96,29.73,9.0,Variable,3.5,-,0.00,Snow,Light Snow,0,2013-01-20 18:58:00
10:09 AM,19.4,17.6,93,29.70,9.0,Calm,Calm,-,0.00,,Overcast,0,2013-01-20 19:09:00
10:58 AM,19.9,18.0,92,29.76,10.0,NNE,3.5,-,0.00,,Overcast,30,2013-01-20 19:58:00
11:58 AM,21.0,18.0,88,29.78,7.0,Variable,3.5,-,0.00,Snow,Light Snow,0,2013-01-20 20:58:00
12:47 PM,24.8,21.2,86,29.77,2.0,ESE,17.3,-,0.00,Snow,Light Snow,110,2013-01-20 21:47:00
12:51 PM,24.8,21.2,86,29.77,1.5,ESE,12.7,-,0.00,Snow,Light Snow,110,2013-01-20 21:51:00
12:56 PM,24.8,21.2,86,29.77,1.0,ESE,13.8,-,0.00,Snow,Light Snow,110,2013-01-20 21:56:00
12:58 PM,24.1,21.9,91,29.81,1.0,East,12.7,-,0.00,Snow,Light Snow,100,2013-01-20 21:58:00
1:13 PM,24.8,21.2,86,29.77,0.8,ESE,15.0,-,0.00,Snow,Light Snow,110,2013-01-20 22:13:00
1:25 PM,24.8,21.2,86,29.77,1.0,East,16.1,-,0.00,Snow,Light Snow,100,2013-01-20 22:25:00
1:32 PM,24.8,23.0,93,29.78,1.2,East,16.1,-,0.00,Snow,Light Snow,100,2013-01-20 22:32:00
1:43 PM,24.8,23.0,93,29.78,1.8,East,11.5,21.9,0.00,Snow,Light Snow,90,2013-01-20 22:43:00
1:47 PM,24.8,23.0,93,29.78,2.5,East,10.4,-,0.00,Snow,Light Snow,80,2013-01-20 22:47:00
1:53 PM,24.8,23.0,93,29.78,4.0,East,10.4,-,0.00,Snow,Light Snow,80,2013-01-20 22:53:00
1:58 PM,25.0,23.0,92,29.81,8.0,East,8.1,-,0.00,Snow,Light Snow,80,2013-01-20 22:58:00
2:58 PM,25.0,21.9,88,29.82,8.0,Calm,Calm,-,0.00,Snow,Light Snow,0,2013-01-20 23:58:00
3:58 PM,23.0,21.0,92,29.83,9.0,North,5.8,-,0.00,,Overcast,350,2013-01-21 00:58:00
4:29 PM,23.0,21.2,93,29.81,1.8,NE,4.6,-,0.00,Snow,Light Snow,50,2013-01-21 01:29:00
4:40 PM,23.0,21.2,93,29.81,2.5,Calm,Calm,-,0.00,Snow,Light Snow,0,2013-01-21 01:40:00
4:45 PM,23.0,21.2,93,29.81,4.0,Calm,Calm,-,0.00,Snow,Light Snow,0,2013-01-21 01:45:00
4:58 PM,23.0,21.9,96,29.85,7.0,Calm,Calm,-,0.00,Snow,Light Snow,0,2013-01-21 01:58:00
5:27 PM,23.0,21.2,93,29.82,10.0,Variable,3.5,-,0.00,,Overcast,0,2013-01-21 02:27:00
5:58 PM,23.0,21.0,92,29.86,9.0,NNW,3.5,-,0.00,Snow,Light Snow,330,2013-01-21 02:58:00
6:58 PM,23.0,21.0,92,29.88,10.0,North,5.8,-,0.00,,Overcast,350,2013-01-21 03:58:00
7:58 PM,23.0,21.0,92,29.89,10.0,North,5.8,-,N/A,,Overcast,10,2013-01-21 04:58:00
8:15 PM,23.0,21.2,93,29.86,10.0,North,5.8,-,N/A,,Overcast,360,2013-01-21 05:15:00
8:58 PM,24.1,21.0,88,29.90,10.0,NNE,5.8,-,N/A,,Overcast,30,2013-01-21 05:58:00
9:03 PM,24.8,21.2,86,29.87,10.0,ENE,6.9,-,N/A,,Overcast,60,2013-01-21 06:03:00
9:28 PM,24.8,21.2,86,29.87,10.0,East,6.9,-,N/A,,Overcast,100,2013-01-21 06:28:00
9:58 PM,26.1,23.0,88,29.91,10.0,East,4.6,-,N/A,,Overcast,100,2013-01-21 06:58:00
10:58 PM,25.0,21.9,88,29.92,10.0,Calm,Calm,-,N/A,,Overcast,0,2013-01-21 07:58:00
11:58 PM,25.0,21.9,88,29.93,10.0,North,6.9,-,N/A,,Overcast,350,2013-01-21 08:58:00